Time;durP1;ratioP1;P1;durP2;ratioP2;P2;SDS_P1;SDS_P2;PMS_P1;PMS_P2;Temp;Humidity;BMP_temperature;BMP_pressure;BME280_temperature;BME280_humidity;BME280_pressure;Samples;Min_cycle;Max_cycle;Signal;HPM_P1;HPM_P2
2022/04/03 00:00:33;;;;;;;26.75;12.15;;;-0.70;99.90;;;;;;4927148;29;20039;-75
2022/04/03 00:03:00;;;;;;;27.45;12.93;;;-0.70;99.90;;;;;;4928739;29;20483;-75
2022/04/03 00:05:26;;;;;;;22.13;9.90;;;-0.60;99.90;;;;;;4927482;29;20028;-87
2022/04/03 00:07:53;;;;;;;30.70;13.80;;;-0.70;99.90;;;;;;4926813;29;20440;-74
2022/04/03 00:10:19;;;;;;;26.50;13.55;;;-0.70;99.90;;;;;;4927102;29;20055;-76
2022/04/03 00:12:46;;;;;;;31.45;13.20;;;-0.70;99.90;;;;;;4927685;29;20078;-75
2022/04/03 00:15:14;;;;;;;31.02;12.18;;;-0.70;99.90;;;;;;4926921;29;20058;-74
2022/04/03 00:17:40;;;;;;;29.92;12.95;;;-0.70;99.90;;;;;;4928795;29;20119;-75
2022/04/03 00:20:06;;;;;;;25.92;12.13;;;-0.70;99.90;;;;;;4927416;29;20477;-74
2022/04/03 00:22:32;;;;;;;31.48;15.30;;;-0.70;99.90;;;;;;4926874;29;20512;-75
2022/04/03 00:24:57;;;;;;;30.05;12.40;;;-0.70;99.90;;;;;;4928498;29;20055;-74
2022/04/03 00:27:24;;;;;;;30.75;14.75;;;-0.70;99.90;;;;;;4926877;29;20055;-75
2022/04/03 00:29:49;;;;;;;23.30;11.25;;;-0.60;99.90;;;;;;4928357;29;20346;-75
2022/04/03 00:32:15;;;;;;;28.52;12.80;;;-0.70;99.90;;;;;;4926887;29;20280;-74
2022/04/03 00:34:40;;;;;;;31.60;14.18;;;-0.60;99.90;;;;;;4928716;29;20046;-74
2022/04/03 00:37:06;;;;;;;30.48;14.55;;;-0.60;99.90;;;;;;4926841;29;20027;-75
2022/04/03 00:39:32;;;;;;;26.13;12.75;;;-0.50;99.90;;;;;;4927176;29;20036;-75
2022/04/03 00:41:58;;;;;;;36.78;14.70;;;-0.60;99.90;;;;;;4927947;29;20094;-75
2022/04/03 00:44:24;;;;;;;24.95;10.68;;;-0.60;99.90;;;;;;4927797;29;20069;-77
2022/04/03 00:46:50;;;;;;;33.50;13.52;;;-0.60;99.90;;;;;;4928340;29;20050;-75
2022/04/03 00:49:16;;;;;;;33.45;13.57;;;-0.60;99.90;;;;;;4928365;29;20488;-75
2022/04/03 00:51:42;;;;;;;29.75;13.95;;;-0.60;99.90;;;;;;4927595;29;20055;-78
2022/04/03 00:54:08;;;;;;;31.88;15.23;;;-0.60;99.90;;;;;;4926785;29;20032;-78
2022/04/03 00:56:34;;;;;;;27.50;12.55;;;-0.60;99.90;;;;;;4927023;29;20128;-78
2022/04/03 00:59:00;;;;;;;36.53;15.75;;;-0.60;99.90;;;;;;4928153;29;20090;-78
2022/04/03 01:01:26;;;;;;;25.98;12.68;;;-0.60;99.90;;;;;;4927266;29;20028;-75
2022/04/03 01:03:52;;;;;;;31.00;14.38;;;-0.60;99.90;;;;;;4928566;29;20039;-79
2022/04/03 01:06:17;;;;;;;33.05;14.43;;;-0.60;99.90;;;;;;4911748;29;20059;-78
2022/04/03 01:08:44;;;;;;;24.38;12.80;;;-0.10;99.90;;;;;;4928038;29;20063;-79
2022/04/03 01:11:12;;;;;;;34.92;12.73;;;-0.20;99.90;;;;;;4912348;29;20389;-78
2022/04/03 01:13:49;;;;;;;37.35;16.15;;;-0.30;99.90;;;;;;4911044;29;20050;-77
2022/04/03 01:16:15;;;;;;;29.38;14.73;;;-0.60;99.90;;;;;;4931312;29;20536;-78
2022/04/03 01:18:41;;;;;;;28.08;13.90;;;0.00;99.90;;;;;;4931767;29;20044;-79
2022/04/03 01:21:07;;;;;;;28.50;13.38;;;-0.50;99.90;;;;;;4914588;29;20611;-79
2022/04/03 01:23:33;;;;;;;26.58;12.07;;;-0.40;99.90;;;;;;4932659;29;20028;-76
2022/04/03 01:25:58;;;;;;;27.50;13.32;;;-0.60;99.90;;;;;;4932607;29;20067;-77
2022/04/03 01:28:24;;;;;;;32.08;14.32;;;-0.50;99.90;;;;;;4932504;29;20063;-77
2022/04/03 01:30:50;;;;;;;37.83;14.77;;;-0.50;99.90;;;;;;4917687;29;20028;-78
2022/04/03 01:33:17;;;;;;;33.90;14.73;;;-0.30;99.90;;;;;;4917643;29;20518;-78
2022/04/03 01:35:44;;;;;;;32.55;13.82;;;-0.50;99.90;;;;;;4917326;29;20038;-78
2022/04/03 01:38:10;;;;;;;30.67;14.82;;;-0.40;99.90;;;;;;4917059;29;20118;-77
2022/04/03 01:40:35;;;;;;;31.20;13.75;;;-0.40;99.90;;;;;;4917185;29;20548;-79
2022/04/03 01:43:10;;;;;;;31.20;14.38;;;-0.50;99.90;;;;;;4917132;29;20035;-77
2022/04/03 01:45:40;;;;;;;29.48;13.25;;;-0.50;99.90;;;;;;4917202;29;20051;-78
2022/04/03 01:48:07;;;;;;;34.22;13.85;;;-0.50;99.90;;;;;;4934599;29;20028;-77
2022/04/03 01:50:33;;;;;;;34.30;14.15;;;-0.40;99.90;;;;;;4917050;29;20563;-78
2022/04/03 01:52:59;;;;;;;31.02;14.68;;;-0.50;99.90;;;;;;4916680;29;20032;-78
2022/04/03 01:55:25;;;;;;;27.10;12.00;;;-0.50;99.90;;;;;;4931062;29;20031;-77
2022/04/03 01:57:55;;;;;;;33.90;15.20;;;-0.50;99.90;;;;;;4933360;29;20055;-77
2022/04/03 02:00:21;;;;;;;23.67;10.52;;;-0.50;99.90;;;;;;4931784;29;20087;-78
2022/04/03 02:02:50;;;;;;;32.28;14.30;;;-0.40;99.90;;;;;;4915914;29;20071;-76
2022/04/03 02:05:16;;;;;;;29.55;12.18;;;-0.50;99.90;;;;;;4933534;29;20027;-76
2022/04/03 02:07:42;;;;;;;27.20;13.82;;;-0.50;99.90;;;;;;4932877;29;20032;-77
2022/04/03 02:10:09;;;;;;;27.50;13.88;;;-0.50;99.90;;;;;;4933153;29;20037;-77
2022/04/03 02:12:38;;;;;;;22.30;11.20;;;-0.50;99.90;;;;;;4933196;29;20030;-78
2022/04/03 02:15:08;;;;;;;26.38;11.68;;;-0.50;99.90;;;;;;4916347;29;20086;-78
2022/04/03 02:17:34;;;;;;;28.58;12.23;;;-0.50;99.90;;;;;;4916406;29;20038;-76
2022/04/03 02:20:00;;;;;;;30.25;13.15;;;-0.50;99.90;;;;;;4933483;29;20027;-77
2022/04/03 02:22:27;;;;;;;27.40;10.65;;;-0.50;99.90;;;;;;4916351;29;20405;-77
2022/04/03 02:24:53;;;;;;;30.85;13.85;;;-0.50;99.90;;;;;;4933022;29;20032;-78
2022/04/03 02:27:18;;;;;;;29.05;13.38;;;-0.50;99.90;;;;;;4932119;29;20051;-79
2022/04/03 02:29:44;;;;;;;24.75;12.73;;;-0.50;99.90;;;;;;4916189;29;20032;-79
2022/04/03 02:32:10;;;;;;;21.25;9.70;;;-0.60;99.90;;;;;;4916213;29;20027;-78
2022/04/03 02:34:35;;;;;;;25.35;12.52;;;-0.60;99.90;;;;;;4933159;29;20036;-78
2022/04/03 02:37:01;;;;;;;27.40;13.48;;;-0.50;99.90;;;;;;4916303;29;20028;-78
2022/04/03 02:39:27;;;;;;;31.27;12.15;;;-0.50;99.90;;;;;;4916042;29;20134;-74
2022/04/03 02:41:52;;;;;;;28.17;13.70;;;-0.50;99.90;;;;;;4933496;29;20473;-78
2022/04/03 02:44:18;;;;;;;21.00;9.00;;;-0.30;99.90;;;;;;4932005;29;20409;-77
2022/04/03 02:46:44;;;;;;;29.08;14.57;;;-0.50;99.90;;;;;;4931398;29;20351;-78
2022/04/03 02:49:09;;;;;;;29.08;12.30;;;-0.40;99.90;;;;;;4914587;29;20273;-76
2022/04/03 02:51:36;;;;;;;27.02;13.82;;;-0.40;99.90;;;;;;4931289;29;20497;-77
2022/04/03 02:54:02;;;;;;;30.48;14.02;;;-0.40;99.90;;;;;;4930826;29;20051;-79
2022/04/03 02:56:28;;;;;;;28.55;12.73;;;-0.50;99.90;;;;;;4914102;29;20036;-77
2022/04/03 02:58:54;;;;;;;27.25;13.75;;;-0.50;99.90;;;;;;4932183;29;20298;-78
2022/04/03 03:01:20;;;;;;;29.95;13.82;;;-0.10;99.90;;;;;;4928073;29;20045;-79
2022/04/03 03:03:46;;;;;;;30.23;14.77;;;-0.50;99.90;;;;;;4929014;29;20345;-78
2022/04/03 03:06:11;;;;;;;29.40;13.65;;;-0.30;99.90;;;;;;4929799;29;20121;-78
2022/04/03 03:08:37;;;;;;;25.02;12.50;;;-0.50;99.90;;;;;;4926731;29;20031;-78
2022/04/03 03:11:04;;;;;;;27.85;12.13;;;-0.30;99.90;;;;;;4912813;29;20038;-78
2022/04/03 03:13:29;;;;;;;28.02;13.52;;;-0.50;99.90;;;;;;4924272;29;20106;-79
2022/04/03 03:15:56;;;;;;;30.50;12.57;;;;;;;;;;4930141;29;20110;-77
2022/04/03 03:18:21;;;;;;;27.45;13.35;;;-0.70;99.90;;;;;;4929159;29;20361;-78
2022/04/03 03:20:47;;;;;;;27.08;11.82;;;-0.60;99.90;;;;;;4929327;29;20034;-75
2022/04/03 03:23:13;;;;;;;25.50;12.93;;;-0.40;99.90;;;;;;4929955;29;20035;-74
2022/04/03 03:25:39;;;;;;;33.30;13.50;;;-0.10;99.90;;;;;;4930683;29;20024;-74
2022/04/03 03:28:05;;;;;;;27.35;13.15;;;-0.60;99.90;;;;;;4930714;29;20208;-73
2022/04/03 03:30:30;;;;;;;25.13;9.45;;;-0.20;99.90;;;;;;4930798;29;20059;-74
2022/04/03 03:32:56;;;;;;;23.95;11.80;;;-0.60;99.90;;;;;;4930434;29;20365;-74
2022/04/03 03:35:22;;;;;;;26.42;12.70;;;-0.60;99.90;;;;;;4930807;29;20667;-73
2022/04/03 03:37:47;;;;;;;29.05;13.68;;;-0.20;99.90;;;;;;4929919;29;20032;-79
2022/04/03 03:40:14;;;;;;;30.10;12.90;;;-0.60;99.90;;;;;;4930494;29;20035;-74
2022/04/03 03:42:41;;;;;;;28.58;13.30;;;-0.30;99.90;;;;;;4930455;29;20094;-74
2022/04/03 03:45:09;;;;;;;29.35;14.02;;;-0.60;99.90;;;;;;4930585;29;20029;-74
2022/04/03 03:47:35;;;;;;;26.88;11.18;;;-0.60;99.90;;;;;;4930541;29;20052;-76
2022/04/03 03:50:02;;;;;;;29.58;13.55;;;-0.60;99.90;;;;;;4930511;29;20047;-74
2022/04/03 03:52:28;;;;;;;27.42;12.27;;;-0.60;99.90;;;;;;4930415;29;20024;-75
2022/04/03 03:54:54;;;;;;;26.02;12.82;;;-0.60;99.90;;;;;;4931700;29;20123;-75
2022/04/03 03:57:20;;;;;;;28.23;13.18;;;-0.60;99.90;;;;;;4932850;29;20055;-74
2022/04/03 03:59:45;;;;;;;28.48;12.85;;;-0.60;99.90;;;;;;4932705;29;20048;-74
2022/04/03 04:02:11;;;;;;;30.27;12.45;;;-0.70;99.90;;;;;;4931993;29;20031;-79
2022/04/03 04:04:37;;;;;;;27.13;13.70;;;-0.40;99.90;;;;;;4932153;29;20094;-74
2022/04/03 04:07:03;;;;;;;34.03;14.55;;;-0.70;99.90;;;;;;4931760;29;20028;-74
2022/04/03 04:09:30;;;;;;;31.65;12.85;;;-0.70;99.90;;;;;;4930139;29;20540;-74
2022/04/03 04:11:56;;;;;;;24.27;11.48;;;-0.70;99.90;;;;;;4930339;29;20034;-74
2022/04/03 04:14:21;;;;;;;28.35;12.80;;;-0.70;99.90;;;;;;4931740;29;20063;-86
2022/04/03 04:16:47;;;;;;;27.45;12.20;;;-0.60;99.90;;;;;;4931464;29;20062;-74
2022/04/03 04:19:15;;;;;;;23.98;11.65;;;-0.30;99.90;;;;;;4931650;29;20039;-74
2022/04/03 04:21:41;;;;;;;29.83;12.73;;;-0.30;99.90;;;;;;4931678;29;20107;-73
2022/04/03 04:24:07;;;;;;;33.05;13.20;;;-0.30;99.90;;;;;;4931357;29;20038;-73
2022/04/03 04:26:33;;;;;;;27.75;12.30;;;-0.20;99.90;;;;;;4931275;29;20204;-74
2022/04/03 04:28:58;;;;;;;28.98;13.98;;;-0.70;99.90;;;;;;4931597;29;20133;-75
2022/04/03 04:31:24;;;;;;;25.70;11.93;;;-0.70;99.90;;;;;;4931644;29;20027;-74
2022/04/03 04:33:50;;;;;;;33.08;14.65;;;-0.10;99.90;;;;;;4930180;29;20028;-74
2022/04/03 04:36:15;;;;;;;31.08;12.23;;;-0.20;99.90;;;;;;4931709;29;20063;-74
2022/04/03 04:38:41;;;;;;;26.25;12.50;;;-0.70;99.90;;;;;;4931688;29;20047;-74
2022/04/03 04:41:07;;;;;;;32.80;14.30;;;-0.70;99.90;;;;;;4931628;29;20028;-74
2022/04/03 04:43:33;;;;;;;26.60;13.15;;;0.10;99.90;;;;;;4931580;29;20028;-74
2022/04/03 04:45:58;;;;;;;28.08;13.20;;;-0.80;99.90;;;;;;4931448;29;20028;-73
2022/04/03 04:48:24;;;;;;;24.27;11.32;;;-0.30;99.90;;;;;;4931436;29;20023;-74
2022/04/03 04:50:49;;;;;;;34.00;13.82;;;-0.80;99.90;;;;;;4934108;29;20036;-76
2022/04/03 04:53:15;;;;;;;29.48;12.00;;;-0.40;99.90;;;;;;4934923;29;20465;-74
2022/04/03 04:55:41;;;;;;;29.80;13.10;;;-0.30;99.90;;;;;;4935239;29;20477;-74
2022/04/03 04:58:07;;;;;;;33.63;14.73;;;-0.50;99.90;;;;;;4935170;29;20087;-74
2022/04/03 05:00:33;;;;;;;35.55;14.00;;;-0.40;99.90;;;;;;4934993;29;20445;-74
2022/04/03 05:02:59;;;;;;;31.90;13.90;;;1.70;99.90;;;;;;4934946;29;20023;-77
2022/04/03 05:05:27;;;;;;;26.50;12.30;;;-0.10;99.90;;;;;;4934904;29;20055;-74
2022/04/03 05:07:57;;;;;;;34.78;13.32;;;-0.20;99.90;;;;;;4934933;29;20103;-74
2022/04/03 05:10:24;;;;;;;25.73;11.23;;;-0.70;99.90;;;;;;4933441;29;20113;-74
2022/04/03 05:12:51;;;;;;;30.77;13.00;;;-0.70;99.90;;;;;;4933230;29;20024;-74
2022/04/03 05:15:18;;;;;;;36.15;15.45;;;-0.50;99.90;;;;;;4934699;29;20028;-74
2022/04/03 05:17:45;;;;;;;29.50;14.00;;;-0.40;99.90;;;;;;4935065;29;20023;-74
2022/04/03 05:20:12;;;;;;;33.45;15.05;;;-0.50;99.90;;;;;;4933196;29;20031;-74
2022/04/03 05:22:39;;;;;;;27.02;12.75;;;-0.30;99.90;;;;;;4934369;29;20024;-74
2022/04/03 05:25:05;;;;;;;27.05;12.75;;;-2.70;99.90;;;;;;4933065;29;20075;-74
2022/04/03 05:27:32;;;;;;;32.63;15.23;;;-0.70;99.90;;;;;;4932964;29;20059;-74
2022/04/03 05:29:58;;;;;;;26.75;13.93;;;-0.80;99.90;;;;;;4933105;29;20508;-75
2022/04/03 05:32:26;;;;;;;29.30;12.82;;;-0.70;99.90;;;;;;4933043;29;20055;-73
2022/04/03 05:34:52;;;;;;;30.38;14.95;;;-0.70;99.90;;;;;;4932625;29;20047;-74
2022/04/03 05:37:19;;;;;;;32.60;14.77;;;-0.70;99.90;;;;;;4932466;29;20032;-75
2022/04/03 05:39:45;;;;;;;28.90;11.60;;;-0.60;99.90;;;;;;4932843;29;20070;-75
2022/04/03 05:42:11;;;;;;;25.23;12.68;;;-0.60;99.90;;;;;;4934186;29;20028;-74
2022/04/03 05:44:37;;;;;;;37.25;14.38;;;-0.60;99.90;;;;;;4934196;29;20028;-74
2022/04/03 05:47:03;;;;;;;27.33;12.13;;;-0.60;99.90;;;;;;4934479;29;20024;-75
2022/04/03 05:49:29;;;;;;;36.70;15.57;;;-0.60;99.90;;;;;;4934402;29;20070;-81
2022/04/03 05:51:54;;;;;;;37.00;14.70;;;-0.60;99.90;;;;;;4934298;29;20028;-77
2022/04/03 05:54:20;;;;;;;30.70;12.45;;;-0.70;99.90;;;;;;4933963;29;20035;-74
2022/04/03 05:56:46;;;;;;;33.45;15.18;;;-0.50;99.90;;;;;;4933882;29;20489;-75
2022/04/03 05:59:12;;;;;;;36.22;14.80;;;-0.20;99.90;;;;;;4933846;29;20590;-73
2022/04/03 06:01:38;;;;;;;36.83;15.95;;;-0.50;99.90;;;;;;4933561;29;20043;-74
2022/04/03 06:04:04;;;;;;;32.72;14.77;;;-0.50;99.90;;;;;;4934055;29;20071;-74
2022/04/03 06:06:29;;;;;;;27.25;12.88;;;-0.40;99.90;;;;;;4934013;29;20030;-74
2022/04/03 06:08:55;;;;;;;32.88;13.70;;;-0.40;99.90;;;;;;4933667;29;20039;-74
2022/04/03 06:11:21;;;;;;;35.20;14.82;;;-0.30;99.90;;;;;;4933876;29;20309;-74
2022/04/03 06:13:46;;;;;;;37.33;15.27;;;-0.30;99.90;;;;;;4933797;29;20059;-74
2022/04/03 06:16:12;;;;;;;31.08;12.30;;;-0.30;99.90;;;;;;4933562;29;20027;-74
2022/04/03 06:18:38;;;;;;;25.33;13.13;;;-0.30;99.90;;;;;;4933666;29;20027;-73
2022/04/03 06:21:03;;;;;;;30.50;13.02;;;-0.30;99.90;;;;;;4933676;29;20031;-73
2022/04/03 06:23:29;;;;;;;26.92;12.52;;;-0.30;99.90;;;;;;4933347;29;20047;-75
2022/04/03 06:25:56;;;;;;;29.35;15.85;;;-0.30;99.90;;;;;;4931886;29;20043;-73
2022/04/03 06:28:22;;;;;;;34.20;14.82;;;-0.30;99.90;;;;;;4932019;29;20056;-74
2022/04/03 06:30:49;;;;;;;27.73;13.15;;;-0.20;99.90;;;;;;4934536;29;20358;-73
2022/04/03 06:33:16;;;;;;;35.92;15.48;;;-0.20;99.90;;;;;;4933899;29;20020;-74
2022/04/03 06:35:43;;;;;;;33.70;14.02;;;-0.20;99.90;;;;;;4933764;29;20066;-74
2022/04/03 06:38:09;;;;;;;30.95;13.13;;;-0.30;99.90;;;;;;4932476;29;20070;-73
2022/04/03 06:40:36;;;;;;;33.92;13.65;;;-0.20;99.90;;;;;;4933963;29;20052;-72
2022/04/03 06:43:02;;;;;;;28.00;13.73;;;-0.20;99.90;;;;;;4933670;29;20126;-89
2022/04/03 06:45:30;;;;;;;29.23;12.80;;;-0.20;99.90;;;;;;4933677;29;20035;-73
2022/04/03 06:48:00;;;;;;;32.13;13.20;;;-0.20;99.90;;;;;;4933264;29;20019;-73
2022/04/03 06:50:25;;;;;;;30.63;13.35;;;0.00;99.90;;;;;;4933250;29;20114;-73
2022/04/03 06:52:51;;;;;;;26.23;12.75;;;0.00;99.90;;;;;;4933287;29;20102;-72
2022/04/03 06:55:17;;;;;;;28.98;14.10;;;0.10;99.90;;;;;;4931818;29;20050;-72
2022/04/03 06:57:43;;;;;;;26.83;12.38;;;0.00;99.90;;;;;;4933526;29;20034;-72
2022/04/03 07:00:09;;;;;;;36.40;16.23;;;0.20;99.90;;;;;;4933730;29;20038;-74
2022/04/03 07:02:35;;;;;;;32.03;13.07;;;0.20;99.90;;;;;;4933562;29;20024;-73
2022/04/03 07:05:02;;;;;;;29.17;12.50;;;0.20;99.90;;;;;;4936545;29;20506;-72
2022/04/03 07:07:28;;;;;;;32.25;14.63;;;0.30;99.90;;;;;;4935583;29;20024;-72
2022/04/03 07:09:54;;;;;;;29.63;13.70;;;0.30;99.90;;;;;;4931291;29;20039;-72
2022/04/03 07:12:20;;;;;;;28.73;13.73;;;0.20;99.90;;;;;;4932139;29;20079;-73
2022/04/03 07:14:46;;;;;;;24.80;11.02;;;0.30;99.90;;;;;;4932741;29;20508;-71
2022/04/03 07:17:12;;;;;;;30.83;13.60;;;0.40;99.90;;;;;;4932979;29;20032;-71
2022/04/03 07:19:38;;;;;;;27.83;11.68;;;0.30;99.90;;;;;;4931518;29;20043;-72
2022/04/03 07:22:04;;;;;;;31.00;14.52;;;0.20;99.90;;;;;;4931700;29;20031;-74
2022/04/03 07:24:30;;;;;;;26.65;12.27;;;0.20;99.90;;;;;;4930980;29;20063;-73
2022/04/03 07:26:56;;;;;;;25.65;12.77;;;0.30;99.90;;;;;;4929215;29;20600;-74
2022/04/03 07:29:22;;;;;;;26.52;13.07;;;0.40;99.90;;;;;;4934041;29;20051;-73
2022/04/03 07:31:48;;;;;;;30.92;14.10;;;0.60;99.90;;;;;;4925102;29;20043;-73
2022/04/03 07:34:14;;;;;;;28.65;12.15;;;0.50;99.90;;;;;;4930584;29;20038;-74
2022/04/03 07:36:40;;;;;;;27.25;13.45;;;0.60;99.90;;;;;;4927244;29;20449;-74
2022/04/03 07:39:06;;;;;;;25.35;11.25;;;0.70;99.90;;;;;;4930959;29;20453;-76
2022/04/03 07:41:31;;;;;;;27.10;11.95;;;0.70;99.90;;;;;;4931385;29;20036;-74
2022/04/03 07:43:57;;;;;;;24.98;11.75;;;0.80;99.90;;;;;;4929246;29;20027;-80
2022/04/03 07:46:22;;;;;;;25.40;12.57;;;0.80;99.90;;;;;;4929758;29;20040;-76
2022/04/03 07:48:48;;;;;;;26.42;11.98;;;0.90;99.90;;;;;;4930663;29;20055;-75
2022/04/03 07:51:14;;;;;;;30.13;13.20;;;1.10;99.90;;;;;;4930293;29;20287;-76
2022/04/03 07:53:40;;;;;;;28.05;13.30;;;0.90;99.90;;;;;;4912100;29;20059;-84
2022/04/03 07:56:06;;;;;;;26.35;13.05;;;0.90;99.90;;;;;;4919233;29;20176;-78
2022/04/03 07:58:33;;;;;;;26.70;11.07;;;1.00;99.90;;;;;;4927767;29;20078;-78
2022/04/03 08:01:00;;;;;;;24.75;11.95;;;0.90;99.90;;;;;;4930953;29;20031;-78
2022/04/03 08:03:26;;;;;;;29.85;12.00;;;0.90;99.90;;;;;;4929575;29;20038;-80
2022/04/03 08:05:53;;;;;;;25.08;14.00;;;1.00;99.90;;;;;;4928081;29;20072;-78
2022/04/03 08:08:19;;;;;;;22.77;12.00;;;0.80;99.90;;;;;;4928514;29;20139;-82
2022/04/03 08:10:45;;;;;;;23.52;10.73;;;0.90;99.90;;;;;;4930531;29;20110;-82
2022/04/03 08:13:10;;;;;;;27.65;11.82;;;1.20;99.90;;;;;;4930610;29;20030;-77
2022/04/03 08:15:36;;;;;;;21.58;10.80;;;1.40;99.90;;;;;;4931486;29;20469;-77
2022/04/03 08:18:02;;;;;;;23.58;10.50;;;1.80;99.90;;;;;;4930006;29;20027;-75
2022/04/03 08:20:28;;;;;;;21.52;9.77;;;1.70;99.90;;;;;;4915518;29;20176;-79
2022/04/03 08:22:55;;;;;;;22.15;10.00;;;1.60;99.90;;;;;;4908416;29;20040;-74
2022/04/03 08:25:20;;;;;;;28.95;11.65;;;1.60;99.90;;;;;;4911311;29;20493;-73
2022/04/03 08:27:49;;;;;;;22.60;11.57;;;1.70;99.90;;;;;;4909630;29;20060;-73
2022/04/03 08:30:27;;;;;;;17.50;9.48;;;1.70;99.90;;;;;;4911674;29;20489;-80
2022/04/03 08:32:53;;;;;;;21.52;11.25;;;1.40;99.90;;;;;;4912354;29;20119;-81
2022/04/03 08:35:21;;;;;;;22.60;11.25;;;1.40;99.90;;;;;;4930203;29;20051;-77
2022/04/03 08:37:48;;;;;;;24.00;11.82;;;1.40;99.90;;;;;;4930691;29;20032;-74
2022/04/03 08:40:14;;;;;;;26.92;10.48;;;1.30;99.90;;;;;;4929162;29;20132;-81
2022/04/03 08:42:40;;;;;;;19.35;9.93;;;1.70;99.90;;;;;;4945102;29;20038;-77
2022/04/03 08:45:11;;;;;;;21.38;10.15;;;1.70;99.90;;;;;;4939936;29;20103;-77
2022/04/03 08:47:45;;;;;;;27.80;11.75;;;2.30;99.90;;;;;;4944199;29;20050;-77
2022/04/03 08:50:15;;;;;;;13.23;6.85;;;2.70;99.90;;;;;;4935045;29;20054;-77
2022/04/03 08:52:51;;;;;;;20.52;10.32;;;3.00;99.90;;;;;;4942304;29;20128;-73
2022/04/03 08:55:21;;;;;;;21.00;9.98;;;3.00;99.90;;;;;;4938462;29;20368;-76
2022/04/03 08:57:47;;;;;;;17.10;8.35;;;3.80;99.90;;;;;;4935903;29;20036;-77
2022/04/03 09:00:14;;;;;;;17.17;8.73;;;2.50;99.90;;;;;;4932591;29;20031;-76
2022/04/03 09:02:41;;;;;;;13.70;7.45;;;2.20;99.90;;;;;;4930754;29;20042;-78
2022/04/03 09:05:09;;;;;;;15.75;9.10;;;2.20;99.90;;;;;;4926787;29;20040;-78
2022/04/03 09:07:35;;;;;;;17.98;8.93;;;2.40;99.90;;;;;;4928390;29;20038;-78
2022/04/03 09:10:12;;;;;;;19.00;9.50;;;2.80;99.90;;;;;;4927838;29;20031;-76
2022/04/03 09:12:49;;;;;;;18.48;9.10;;;2.60;99.90;;;;;;4927493;29;20035;-77
2022/04/03 09:15:20;;;;;;;17.15;6.78;;;2.60;99.90;;;;;;4929002;29;20036;-76
2022/04/03 09:17:54;;;;;;;15.95;7.68;;;3.20;99.90;;;;;;4928100;29;20027;-75
2022/04/03 09:20:34;;;;;;;12.48;7.15;;;3.30;99.90;;;;;;4929461;29;20463;-75
2022/04/03 09:23:10;;;;;;;16.05;8.50;;;3.60;99.90;;;;;;4928790;29;20023;-75
2022/04/03 09:25:41;;;;;;;15.20;8.65;;;3.80;99.90;;;;;;4926969;29;20103;-75
2022/04/03 09:28:13;;;;;;;14.45;8.73;;;4.30;99.90;;;;;;4928546;29;20043;-75
2022/04/03 09:30:43;;;;;;;15.50;7.60;;;3.50;99.90;;;;;;4928966;29;20365;-75
2022/04/03 09:33:10;;;;;;;19.88;9.00;;;3.30;99.90;;;;;;4928893;29;20054;-75
2022/04/03 09:35:58;;;;;;;13.57;8.45;;;2.90;99.90;;;;;;4931008;29;20054;-75
2022/04/03 09:38:28;;;;;;;16.67;7.97;;;2.50;99.90;;;;;;4926398;29;20063;-76
2022/04/03 09:40:55;;;;;;;16.10;8.68;;;2.40;99.90;;;;;;4922078;29;20023;-75
2022/04/03 09:43:31;;;;;;;19.50;8.82;;;2.40;99.90;;;;;;4943890;29;20024;-74
2022/04/03 09:46:01;;;;;;;28.25;13.32;;;2.40;99.90;;;;;;4911740;29;20032;-76
2022/04/03 09:48:31;;;;;;;17.05;7.88;;;2.40;99.90;;;;;;4912791;29;20036;-76
2022/04/03 09:51:03;;;;;;;18.00;8.73;;;2.50;99.90;;;;;;4913605;29;20039;-77
2022/04/03 09:53:39;;;;;;;21.88;9.52;;;2.70;99.90;;;;;;4912700;29;20080;-75
2022/04/03 09:56:05;;;;;;;18.08;9.27;;;2.70;99.90;;;;;;4912214;29;20040;-76
2022/04/03 09:58:30;;;;;;;13.35;7.18;;;2.60;99.90;;;;;;4911598;29;20405;-76
2022/04/03 10:00:56;;;;;;;13.25;7.57;;;2.60;99.90;;;;;;4912288;29;20111;-75
2022/04/03 10:03:23;;;;;;;7.57;4.70;;;2.50;99.90;;;;;;4912649;29;20456;-76
2022/04/03 10:05:51;;;;;;;10.43;6.03;;;2.40;99.90;;;;;;4912244;29;20020;-75
2022/04/03 10:08:19;;;;;;;10.30;6.28;;;2.30;99.90;;;;;;4911581;29;20370;-76
2022/04/03 10:10:47;;;;;;;11.27;6.13;;;2.30;99.90;;;;;;4912109;29;20047;-77
2022/04/03 10:13:14;;;;;;;10.45;5.82;;;2.10;99.90;;;;;;4911790;29;20035;-77
2022/04/03 10:15:39;;;;;;;12.85;7.30;;;2.00;99.90;;;;;;4913981;29;20043;-78
2022/04/03 10:18:05;;;;;;;12.43;7.15;;;2.00;99.90;;;;;;4919523;29;20017;-77
2022/04/03 10:20:35;;;;;;;14.45;6.47;;;2.10;99.90;;;;;;4930611;29;20111;-77
2022/04/03 10:23:04;;;;;;;;;;;2.20;99.90;;;;;;4926475;29;20051;-77
2022/04/03 10:25:32;;;;;;;10.30;5.85;;;-0.20;99.90;;;;;;4925344;29;19906;-75
2022/04/03 10:28:02;;;;;;;16.95;7.30;;;2.10;99.90;;;;;;4923654;29;20474;-76
2022/04/03 10:30:35;;;;;;;15.02;7.68;;;2.20;99.90;;;;;;4930890;29;20020;-76
2022/04/03 10:33:01;;;;;;;12.55;7.20;;;2.30;99.90;;;;;;4929111;29;20030;-74
2022/04/03 10:35:27;;;;;;;13.65;6.82;;;2.60;99.90;;;;;;4921597;29;20135;-73
2022/04/03 10:38:01;;;;;;;9.80;6.15;;;2.80;99.90;;;;;;4930303;29;20020;-74
2022/04/03 10:40:31;;;;;;;13.73;7.15;;;2.80;99.90;;;;;;4930150;29;20035;-79
2022/04/03 10:43:01;;;;;;;17.95;7.93;;;2.90;99.90;;;;;;4931883;29;20023;-74
2022/04/03 10:45:34;;;;;;;12.05;6.80;;;3.10;99.90;;;;;;4932916;29;20107;-74
2022/04/03 10:48:22;;;;;;;9.85;6.82;;;3.10;99.90;;;;;;4929529;29;20505;-74
2022/04/03 10:51:30;;;;;;;12.07;7.40;;;2.90;99.90;;;;;;4929767;29;20035;-76
2022/04/03 10:54:01;;;;;;;11.80;6.78;;;3.20;99.90;;;;;;4919951;29;20048;-75
2022/04/03 10:56:28;;;;;;;14.10;8.10;;;3.20;99.90;;;;;;4930276;29;20031;-75
2022/04/03 10:58:57;;;;;;;9.32;5.78;;;3.10;99.90;;;;;;4929779;29;20019;-74
2022/04/03 11:01:28;;;;;;;12.35;6.15;;;3.30;99.90;;;;;;4929734;29;20428;-74
2022/04/03 11:04:11;;;;;;;13.50;8.13;;;3.40;99.90;;;;;;4930655;29;20061;-74
2022/04/03 11:06:41;;;;;;;11.68;6.72;;;3.40;99.90;;;;;;4930602;29;20028;-74
2022/04/03 11:09:09;;;;;;;14.25;6.55;;;3.30;99.90;;;;;;4930368;29;20027;-74
2022/04/03 11:11:38;;;;;;;12.45;7.07;;;3.40;99.90;;;;;;4930063;29;20024;-74
2022/04/03 11:14:08;;;;;;;9.55;5.95;;;3.40;99.90;;;;;;4930279;29;20047;-81
2022/04/03 11:16:54;;;;;;;12.07;6.90;;;3.40;99.90;;;;;;4930317;29;20131;-79
2022/04/03 11:19:41;;;;;;;12.23;6.10;;;3.10;99.90;;;;;;4930390;29;20054;-75
2022/04/03 11:22:09;;;;;;;14.40;7.32;;;3.10;99.90;;;;;;4930948;29;20024;-74
2022/04/03 11:24:37;;;;;;;14.80;6.30;;;3.30;99.90;;;;;;4928877;29;20380;-73
2022/04/03 11:27:07;;;;;;;12.50;7.25;;;3.30;99.90;;;;;;4927343;29;20044;-74
2022/04/03 11:29:33;;;;;;;13.68;7.72;;;3.40;99.90;;;;;;4929057;29;20062;-74
2022/04/03 11:32:03;;;;;;;12.80;7.00;;;3.00;99.90;;;;;;4929505;29;20054;-73
2022/04/03 11:34:33;;;;;;;12.90;7.60;;;2.90;99.90;;;;;;4929253;29;20036;-74
2022/04/03 11:37:00;;;;;;;;;;;2.70;99.90;;;;;;4929624;29;20456;-73
2022/04/03 11:39:34;;;;;;;12.95;6.97;;;2.60;99.90;;;;;;4930221;29;19935;-74
2022/04/03 11:42:06;;;;;;;9.23;5.30;;;2.50;99.90;;;;;;4929392;29;20131;-76
2022/04/03 11:44:32;;;;;;;16.73;6.85;;;2.50;99.90;;;;;;4927374;29;20151;-74
2022/04/03 11:47:00;;;;;;;12.95;7.07;;;2.50;99.90;;;;;;4929450;29;20087;-73
2022/04/03 11:49:26;;;;;;;15.55;8.35;;;2.60;99.90;;;;;;4929706;29;20473;-73
2022/04/03 11:52:09;;;;;;;14.05;7.60;;;2.50;99.90;;;;;;4929536;29;20038;-74
2022/04/03 11:54:36;;;;;;;17.50;7.40;;;2.70;99.90;;;;;;4929609;29;20036;-74
2022/04/03 11:57:07;;;;;;;11.68;6.97;;;2.70;99.90;;;;;;4930670;29;20028;-74
2022/04/03 11:59:35;;;;;;;11.68;6.22;;;2.90;99.90;;;;;;4930631;29;20036;-74
2022/04/03 12:02:09;;;;;;;12.82;6.25;;;3.20;99.90;;;;;;4929624;29;20118;-73
2022/04/03 12:04:40;;;;;;;10.80;5.75;;;3.20;99.90;;;;;;4929903;29;20278;-76
2022/04/03 12:07:06;;;;;;;13.38;5.97;;;3.00;99.90;;;;;;4927778;29;20245;-74
2022/04/03 12:09:37;;;;;;;10.82;6.43;;;3.10;99.90;;;;;;4929925;29;20032;-74
2022/04/03 12:12:04;;;;;;;11.48;6.35;;;3.10;99.90;;;;;;4930166;29;20083;-75
2022/04/03 12:14:32;;;;;;;10.25;6.03;;;3.20;99.90;;;;;;4929465;29;20051;-74
2022/04/03 12:17:00;;;;;;;12.52;6.30;;;3.20;99.90;;;;;;4929542;29;20024;-74
2022/04/03 12:19:30;;;;;;;9.90;5.30;;;3.20;99.90;;;;;;4928368;29;20027;-75
2022/04/03 12:22:04;;;;;;;8.82;5.30;;;3.20;99.90;;;;;;4930010;29;20024;-84
2022/04/03 12:24:31;;;;;;;10.73;6.07;;;3.30;99.90;;;;;;4929155;29;20485;-75
2022/04/03 12:26:59;;;;;;;10.07;5.78;;;3.20;99.90;;;;;;4930700;29;20059;-75
2022/04/03 12:29:27;;;;;;;10.25;5.85;;;3.20;99.90;;;;;;4929866;29;20504;-74
2022/04/03 12:31:57;;;;;;;9.82;5.63;;;3.10;99.90;;;;;;4929460;29;20043;-75
2022/04/03 12:34:24;;;;;;;8.90;5.65;;;3.10;99.90;;;;;;4929116;29;20095;-75
2022/04/03 12:36:52;;;;;;;8.13;5.28;;;3.20;99.90;;;;;;4929384;29;20070;-76